Terminal Aerodrome Forecast
Issued by NWS

Home | Current Version | Previous Version | Text Only | Print | Product List | Glossary Off
Versions: 1 2 3 4 5 6 7 8 9 10 11 12 13 14 15 16 17 18 19 20 21 22 23 24 25 26

000
FTUS43 KTOP 230500
TAFFOE
TAF
KFOE 230520Z 2306/2406 15008KT 6SM -SHRA BR SCT023 OVC070
     FM231000 19006KT P6SM OVC022
     FM231600 21009KT P6SM BKN024
     FM232200 20006KT P6SM SCT030=

USA.gov is the U.S. government's official web portal to all federal, state and local government web resources and services.